Time;durP1;ratioP1;P1;durP2;ratioP2;P2;SDS_P1;SDS_P2;PMS_P1;PMS_P2;Temp;Humidity;BMP_temperature;BMP_pressure;BME280_temperature;BME280_humidity;BME280_pressure;Samples;Min_cycle;Max_cycle;Signal;HPM_P1;HPM_P2
2022/10/01 00:00:48;;;;;;;1.17;1.17;;;;;6.30;95697.00;;;;5115144;28;20517;-59
2022/10/01 00:03:15;;;;;;;0.97;0.97;;;;;6.20;95689.00;;;;5115076;28;20240;-62
2022/10/01 00:05:41;;;;;;;1.27;1.17;;;;;6.30;95692.00;;;;5115151;28;20190;-62
2022/10/01 00:08:08;;;;;;;1.30;1.30;;;;;6.50;95683.00;;;;5097014;28;20528;-63
2022/10/01 00:10:40;;;;;;;1.33;1.20;;;;;6.50;95692.00;;;;5114977;28;20219;-63
2022/10/01 00:13:08;;;;;;;0.97;0.97;;;;;6.50;95681.00;;;;5115178;28;20206;-63
2022/10/01 00:15:37;;;;;;;0.77;0.77;;;;;6.50;95686.00;;;;5115010;28;20223;-63
2022/10/01 00:18:04;;;;;;;1.43;1.33;;;;;6.60;95684.00;;;;5114727;28;20246;-61
2022/10/01 00:20:31;;;;;;;0.70;0.70;;;;;6.50;95672.00;;;;5115033;28;20205;-59
2022/10/01 00:23:00;;;;;;;1.23;1.20;;;;;6.60;95671.00;;;;5114656;28;20229;-62
2022/10/01 00:25:27;;;;;;;1.20;1.10;;;;;6.60;95676.00;;;;5114823;28;20197;-63
2022/10/01 00:27:55;;;;;;;0.83;0.83;;;;;6.60;95673.00;;;;5114811;28;20200;-63
2022/10/01 00:30:22;;;;;;;1.07;1.07;;;;;6.60;95675.00;;;;5114685;28;20197;-63
2022/10/01 00:32:51;;;;;;;0.90;0.90;;;;;6.70;95672.00;;;;5114701;28;20266;-62
2022/10/01 00:35:18;;;;;;;1.00;1.00;;;;;6.70;95674.00;;;;5114524;28;20216;-63
2022/10/01 00:37:48;;;;;;;0.60;0.60;;;;;6.80;95679.00;;;;5114592;28;20270;-63
2022/10/01 00:40:14;;;;;;;0.87;0.87;;;;;6.80;95686.00;;;;5114568;28;20228;-62
2022/10/01 00:42:42;;;;;;;0.70;0.70;;;;;6.50;95693.00;;;;5114425;28;20713;-61
2022/10/01 00:45:12;;;;;;;0.90;0.90;;;;;6.40;95701.00;;;;5114588;28;20205;-62
2022/10/01 00:47:42;;;;;;;0.93;0.93;;;;;6.50;95706.00;;;;5114333;28;20229;-62
2022/10/01 00:50:15;;;;;;;1.23;1.20;;;;;6.40;95708.00;;;;5114446;28;20255;-61
2022/10/01 00:52:45;;;;;;;1.13;1.13;;;;;6.40;95707.00;;;;5114393;28;20228;-59
2022/10/01 00:55:15;;;;;;;0.93;0.93;;;;;6.30;95702.00;;;;5114304;28;20259;-60
2022/10/01 00:57:44;;;;;;;0.87;0.87;;;;;6.30;95709.00;;;;5096194;28;20233;-63
2022/10/01 01:00:12;;;;;;;0.73;0.73;;;;;6.30;95699.00;;;;5114180;28;20287;-62
2022/10/01 01:02:39;;;;;;;1.40;1.30;;;;;6.30;95690.00;;;;5114166;28;20224;-60
2022/10/01 01:05:12;;;;;;;4.73;2.17;;;;;6.40;95691.00;;;;5114354;28;20190;-61
2022/10/01 01:07:43;;;;;;;0.70;0.70;;;;;6.50;95689.00;;;;5114321;28;20283;-63
2022/10/01 01:10:12;;;;;;;0.80;0.80;;;;;6.50;95680.00;;;;5114226;28;20300;-62
2022/10/01 01:12:54;;;;;;;0.90;0.90;;;;;6.50;95684.00;;;;5113948;28;20213;-62
2022/10/01 01:15:30;;;;;;;0.93;0.93;;;;;6.50;95694.00;;;;5114005;28;20233;-63
2022/10/01 01:18:04;;;;;;;0.80;0.80;;;;;6.60;95685.00;;;;5114026;28;20197;-63
2022/10/01 01:20:46;;;;;;;1.00;1.00;;;;;6.70;95680.00;;;;5113965;28;20232;-61
2022/10/01 01:23:28;;;;;;;1.60;1.50;;;;;6.70;95677.00;;;;5114135;28;20243;-65
2022/10/01 01:26:01;;;;;;;1.10;1.00;;;;;6.70;95670.00;;;;5114293;28;20232;-65
2022/10/01 01:28:32;;;;;;;0.80;0.80;;;;;6.60;95657.00;;;;5114502;28;20269;-65
2022/10/01 01:31:03;;;;;;;0.60;0.60;;;;;6.40;95658.00;;;;5095936;28;20210;-60
2022/10/01 01:33:33;;;;;;;0.80;0.80;;;;;6.50;95638.00;;;;5113787;28;20290;-63
2022/10/01 01:36:06;;;;;;;1.50;1.50;;;;;6.60;95639.00;;;;5113832;28;20223;-63
2022/10/01 01:38:40;;;;;;;0.90;0.90;;;;;6.60;95646.00;;;;5114308;28;20228;-62
2022/10/01 01:41:09;;;;;;;0.97;0.97;;;;;6.50;95642.00;;;;5113885;28;20529;-62
2022/10/01 01:43:40;;;;;;;0.93;0.93;;;;;6.50;95629.00;;;;5113594;28;20252;-62
2022/10/01 01:46:11;;;;;;;0.93;0.93;;;;;6.50;95630.00;;;;5113695;28;20511;-63
2022/10/01 01:48:46;;;;;;;0.77;0.77;;;;;6.50;95635.00;;;;5113443;28;20616;-62
2022/10/01 01:51:19;;;;;;;0.63;0.63;;;;;6.40;95629.00;;;;5113612;28;20198;-62
2022/10/01 01:53:46;;;;;;;0.77;0.77;;;;;6.40;95618.00;;;;5113486;28;20727;-62
2022/10/01 01:56:13;;;;;;;0.67;0.67;;;;;6.50;95616.00;;;;5113489;28;20209;-62
2022/10/01 01:58:45;;;;;;;1.00;1.00;;;;;6.50;95615.00;;;;5095590;28;20202;-62
2022/10/01 02:01:33;;;;;;;0.60;0.60;;;;;6.70;95619.00;;;;5095322;28;20208;-62
2022/10/01 02:04:05;;;;;;;0.80;0.80;;;;;6.90;95609.00;;;;5113302;28;20237;-62
2022/10/01 02:06:46;;;;;;;0.80;0.80;;;;;6.90;95607.00;;;;5113370;28;20194;-62
2022/10/01 02:09:20;;;;;;;1.03;1.03;;;;;7.10;95598.00;;;;5113345;28;20275;-62
2022/10/01 02:11:58;;;;;;;0.80;0.80;;;;;7.20;95596.00;;;;5113206;28;20273;-62
2022/10/01 02:14:34;;;;;;;0.87;0.87;;;;;7.30;95607.00;;;;5116944;28;20219;-61
2022/10/01 02:17:13;;;;;;;1.43;1.33;;;;;7.40;95605.00;;;;5116802;28;20299;-61
2022/10/01 02:19:50;;;;;;;1.47;1.33;;;;;7.30;95605.00;;;;5116829;28;20193;-62
2022/10/01 02:22:20;;;;;;;1.10;1.10;;;;;7.10;95601.00;;;;5116666;28;20226;-62
2022/10/01 02:24:51;;;;;;;1.37;1.27;;;;;7.00;95593.00;;;;5116780;28;20197;-62
2022/10/01 02:27:22;;;;;;;0.90;0.90;;;;;6.90;95587.00;;;;5116733;28;20225;-62
2022/10/01 02:29:52;;;;;;;0.60;0.60;;;;;6.90;95595.00;;;;5098678;28;20213;-62
2022/10/01 02:32:21;;;;;;;1.67;1.57;;;;;7.00;95591.00;;;;5116562;28;20263;-61
2022/10/01 02:34:52;;;;;;;0.60;0.60;;;;;7.10;95587.00;;;;5116640;28;20194;-62
2022/10/01 02:37:22;;;;;;;0.70;0.70;;;;;7.10;95584.00;;;;5116697;28;20202;-62
2022/10/01 02:39:51;;;;;;;1.70;1.60;;;;;7.00;95581.00;;;;5116684;28;20231;-63
2022/10/01 02:42:21;;;;;;;0.80;0.80;;;;;7.00;95577.00;;;;5116497;28;20186;-63
2022/10/01 02:44:52;;;;;;;0.80;0.80;;;;;7.20;95574.00;;;;5116461;28;20225;-62
2022/10/01 02:47:25;;;;;;;0.80;0.80;;;;;7.40;95573.00;;;;5116400;28;20197;-62
2022/10/01 02:49:53;;;;;;;0.70;0.70;;;;;7.70;95572.00;;;;5098368;28;20569;-62
2022/10/01 02:52:28;;;;;;;0.90;0.90;;;;;7.80;95579.00;;;;5116306;28;20201;-62
2022/10/01 02:54:59;;;;;;;1.40;0.70;;;;;8.00;95567.00;;;;5116206;28;20221;-61
2022/10/01 02:57:28;;;;;;;0.70;0.70;;;;;8.00;95585.00;;;;5116319;28;20209;-62
2022/10/01 02:59:58;;;;;;;0.90;0.90;;;;;8.00;95564.00;;;;5116237;28;20439;-62
2022/10/01 03:02:26;;;;;;;0.70;0.70;;;;;8.10;95572.00;;;;5116221;28;20194;-62
2022/10/01 03:04:53;;;;;;;1.53;1.10;;;;;8.10;95566.00;;;;5116083;28;20201;-62
2022/10/01 03:07:20;;;;;;;0.97;0.97;;;;;8.20;95565.00;;;;5116049;28;20225;-62
2022/10/01 03:09:48;;;;;;;0.70;0.70;;;;;8.00;95575.00;;;;5116053;28;20201;-65
2022/10/01 03:12:15;;;;;;;0.60;0.60;;;;;8.00;95572.00;;;;5116062;28;20218;-63
2022/10/01 03:14:43;;;;;;;1.13;1.13;;;;;8.10;95577.00;;;;5116036;28;20288;-60
2022/10/01 03:17:13;;;;;;;0.80;0.80;;;;;8.10;95573.00;;;;5097722;28;20194;-62
2022/10/01 03:19:40;;;;;;;0.60;0.60;;;;;8.10;95575.00;;;;5116112;28;20174;-62
2022/10/01 03:22:08;;;;;;;0.70;0.70;;;;;8.10;95577.00;;;;5115826;28;20208;-62
2022/10/01 03:24:35;;;;;;;0.90;0.90;;;;;8.10;95571.00;;;;5114405;28;20240;-62
2022/10/01 03:27:04;;;;;;;0.80;0.80;;;;;7.80;95571.00;;;;5115795;28;20202;-63
2022/10/01 03:29:30;;;;;;;0.70;0.70;;;;;8.00;95566.00;;;;5115610;28;20275;-63
2022/10/01 03:31:57;;;;;;;0.53;0.53;;;;;7.90;95559.00;;;;5115561;28;20186;-63
2022/10/01 03:34:25;;;;;;;0.87;0.87;;;;;7.80;95568.00;;;;5115642;28;20303;-62
2022/10/01 03:36:51;;;;;;;0.90;0.90;;;;;7.80;95556.00;;;;5114587;28;20198;-63
2022/10/01 03:39:18;;;;;;;0.83;0.83;;;;;7.80;95551.00;;;;5115455;28;20193;-62
2022/10/01 03:41:45;;;;;;;0.60;0.60;;;;;7.70;95548.00;;;;5115523;28;20617;-62
2022/10/01 03:44:12;;;;;;;0.70;0.70;;;;;7.90;95545.00;;;;5115361;28;20225;-63
2022/10/01 03:46:39;;;;;;;0.73;0.73;;;;;7.80;95541.00;;;;5115382;28;20182;-63
2022/10/01 03:49:06;;;;;;;0.60;0.60;;;;;7.80;95537.00;;;;5115298;28;20216;-62
2022/10/01 03:51:36;;;;;;;0.73;0.73;;;;;7.70;95534.00;;;;5115228;28;20216;-62
2022/10/01 03:54:04;;;;;;;0.83;0.83;;;;;7.90;95532.00;;;;5097329;28;20194;-62
2022/10/01 03:56:34;;;;;;;0.97;0.97;;;;;8.00;95532.00;;;;5115218;28;20222;-62
2022/10/01 03:59:01;;;;;;;0.93;0.93;;;;;8.00;95546.00;;;;5115241;28;20210;-62
2022/10/01 04:01:28;;;;;;;0.60;0.60;;;;;7.90;95539.00;;;;5115143;28;20209;-62
2022/10/01 04:03:55;;;;;;;0.80;0.80;;;;;7.90;95539.00;;;;5115124;28;20228;-62
2022/10/01 04:06:22;;;;;;;0.60;0.60;;;;;8.00;95544.00;;;;5115084;28;20308;-62
2022/10/01 04:08:49;;;;;;;1.10;1.00;;;;;8.20;95543.00;;;;5114961;28;20648;-62
2022/10/01 04:11:16;;;;;;;0.70;0.70;;;;;8.00;95535.00;;;;5115019;28;20202;-63
2022/10/01 04:13:43;;;;;;;0.57;0.57;;;;;7.80;95528.00;;;;5114842;28;20229;-62
2022/10/01 04:16:09;;;;;;;0.60;0.60;;;;;7.90;95514.00;;;;5115018;28;20201;-65
2022/10/01 04:18:38;;;;;;;1.00;1.00;;;;;8.00;95526.00;;;;5115260;28;20221;-68
2022/10/01 04:21:05;;;;;;;0.77;0.77;;;;;8.10;95527.00;;;;5097445;28;20197;-65
2022/10/01 04:23:32;;;;;;;0.70;0.70;;;;;8.00;95520.00;;;;5114994;28;20234;-67
2022/10/01 04:26:01;;;;;;;0.53;0.53;;;;;8.00;95527.00;;;;5115032;28;20213;-63
2022/10/01 04:28:28;;;;;;;0.70;0.70;;;;;8.10;95523.00;;;;5114857;28;20194;-62
2022/10/01 04:33:37;;;;;;;1.13;1.13;;;;;8.20;95522.00;;;;5095828;28;20213;-60
2022/10/01 04:36:06;;;;;;;0.67;0.67;;;;;8.20;95524.00;;;;5114146;28;20241;-62
2022/10/01 04:38:33;;;;;;;0.63;0.63;;;;;8.40;95510.00;;;;5114612;28;20294;-62
2022/10/01 04:41:01;;;;;;;1.77;1.50;;;;;8.40;95521.00;;;;5114435;28;20277;-62
2022/10/01 04:43:27;;;;;;;0.50;0.50;;;;;8.50;95528.00;;;;5114468;28;20235;-63
2022/10/01 04:45:54;;;;;;;0.60;0.60;;;;;8.50;95524.00;;;;5114520;28;20788;-63
2022/10/01 04:48:23;;;;;;;0.70;0.70;;;;;8.40;95517.00;;;;5114477;28;20198;-62
2022/10/01 04:50:50;;;;;;;0.77;0.77;;;;;8.50;95511.00;;;;5114490;28;20193;-61
2022/10/01 04:53:17;;;;;;;0.73;0.73;;;;;8.50;95508.00;;;;5114361;28;20265;-60
2022/10/01 04:55:45;;;;;;;0.60;0.60;;;;;8.50;95513.00;;;;5114358;28;20275;-63
2022/10/01 04:58:12;;;;;;;0.60;0.60;;;;;8.70;95509.00;;;;5096257;28;20290;-61
2022/10/01 05:00:39;;;;;;;0.60;0.60;;;;;8.70;95509.00;;;;5114320;28;20190;-62
2022/10/01 05:03:06;;;;;;;0.93;0.93;;;;;8.80;95504.00;;;;5096227;28;20246;-62
2022/10/01 05:05:33;;;;;;;0.73;0.73;;;;;8.70;95509.00;;;;5113109;28;20198;-62
2022/10/01 05:08:01;;;;;;;0.60;0.60;;;;;8.80;95501.00;;;;5114271;28;20649;-62
2022/10/01 05:10:28;;;;;;;0.80;0.80;;;;;8.80;95512.00;;;;5114056;28;20224;-63
2022/10/01 05:12:55;;;;;;;0.70;0.70;;;;;8.80;95494.00;;;;5096207;28;20193;-62
2022/10/01 05:15:25;;;;;;;0.60;0.60;;;;;8.80;95498.00;;;;5114109;28;20214;-61
2022/10/01 05:17:51;;;;;;;0.50;0.50;;;;;8.80;95497.00;;;;5113983;28;20198;-62
2022/10/01 05:20:20;;;;;;;0.60;0.60;;;;;8.80;95485.00;;;;5113948;28;20218;-61
2022/10/01 05:22:49;;;;;;;0.80;0.80;;;;;8.70;95480.00;;;;5095798;28;20300;-62
2022/10/01 05:25:19;;;;;;;0.70;0.70;;;;;9.00;95479.00;;;;5113910;28;20567;-63
2022/10/01 05:27:46;;;;;;;0.60;0.60;;;;;9.10;95482.00;;;;5114671;28;20214;-62
2022/10/01 05:30:18;;;;;;;0.60;0.60;;;;;9.00;95478.00;;;;5095970;28;20205;-62
2022/10/01 05:32:54;;;;;;;0.80;0.80;;;;;9.00;95481.00;;;;5113796;28;20577;-62
2022/10/01 05:35:21;;;;;;;0.90;0.83;;;;;9.10;95477.00;;;;5095726;28;20221;-62
2022/10/01 05:37:51;;;;;;;0.57;0.57;;;;;9.10;95474.00;;;;5113814;28;20228;-65
2022/10/01 05:40:20;;;;;;;0.53;0.53;;;;;8.90;95468.00;;;;5095886;28;20198;-62
2022/10/01 05:42:47;;;;;;;0.50;0.50;;;;;9.10;95467.00;;;;5113497;28;20283;-62
2022/10/01 05:45:14;;;;;;;0.90;0.90;;;;;9.20;95452.00;;;;5095571;28;20212;-62
2022/10/01 05:47:41;;;;;;;0.50;0.50;;;;;9.10;95465.00;;;;5112641;28;20250;-61
2022/10/01 05:50:09;;;;;;;0.63;0.63;;;;;9.10;95450.00;;;;5113519;28;20629;-60
2022/10/01 05:52:36;;;;;;;0.90;0.90;;;;;9.20;95445.00;;;;5113448;28;20209;-62
2022/10/01 05:55:03;;;;;;;0.57;0.57;;;;;9.30;95437.00;;;;5113481;28;20232;-62
2022/10/01 05:57:30;;;;;;;0.80;0.80;;;;;9.20;95441.00;;;;5113412;28;20190;-63
2022/10/01 05:59:57;;;;;;;0.60;0.60;;;;;9.30;95429.00;;;;5095499;28;20278;-66
2022/10/01 06:02:23;;;;;;;0.80;0.80;;;;;9.20;95426.00;;;;5113689;28;20194;-62
2022/10/01 06:04:53;;;;;;;0.50;0.50;;;;;9.30;95415.00;;;;5113523;28;20264;-65
2022/10/01 06:07:23;;;;;;;0.80;0.80;;;;;9.30;95427.00;;;;5095468;28;20193;-63
2022/10/01 06:09:49;;;;;;;0.60;0.60;;;;;9.20;95434.00;;;;5095179;28;20529;-63
2022/10/01 06:12:16;;;;;;;0.57;0.57;;;;;9.20;95433.00;;;;5113227;28;20277;-63
2022/10/01 06:14:43;;;;;;;0.50;0.50;;;;;9.20;95425.00;;;;5113246;28;20189;-62
2022/10/01 06:17:10;;;;;;;0.70;0.70;;;;;9.30;95423.00;;;;5112983;28;20220;-62
2022/10/01 06:19:36;;;;;;;0.70;0.70;;;;;9.30;95431.00;;;;5094930;28;20656;-62
2022/10/01 06:22:03;;;;;;;0.50;0.50;;;;;9.30;95418.00;;;;5112996;28;20275;-62
2022/10/01 06:24:31;;;;;;;0.80;0.80;;;;;9.20;95417.00;;;;5112993;28;20214;-62
2022/10/01 06:26:58;;;;;;;0.60;0.60;;;;;9.10;95426.00;;;;5113010;28;20313;-64
2022/10/01 06:29:25;;;;;;;0.70;0.70;;;;;9.20;95419.00;;;;5095558;28;20276;-62
2022/10/01 06:31:51;;;;;;;0.50;0.50;;;;;9.20;95420.00;;;;5113132;28;20192;-62
2022/10/01 06:34:18;;;;;;;0.70;0.70;;;;;9.10;95433.00;;;;5112898;28;20186;-63
2022/10/01 06:36:45;;;;;;;0.57;0.57;;;;;9.20;95424.00;;;;5113153;28;20262;-63
2022/10/01 06:39:14;;;;;;;0.70;0.70;;;;;9.10;95410.00;;;;5094825;28;20222;-62
2022/10/01 06:41:42;;;;;;;0.70;0.70;;;;;9.10;95417.00;;;;5112793;28;20665;-61
2022/10/01 06:44:09;;;;;;;1.07;1.00;;;;;9.00;95422.00;;;;5094691;28;20264;-63
2022/10/01 06:46:38;;;;;;;0.53;0.53;;;;;9.00;95440.00;;;;5112759;28;20197;-60
2022/10/01 06:49:05;;;;;;;0.80;0.70;;;;;8.90;95442.00;;;;5112843;28;20190;-61
2022/10/01 06:54:19;;;;;;;0.57;0.57;;;;;8.90;95443.00;;;;5112914;28;20237;-61
2022/10/01 06:56:46;;;;;;;0.73;0.73;;;;;9.00;95436.00;;;;5112693;28;20281;-61
2022/10/01 06:59:13;;;;;;;0.80;0.80;;;;;9.00;95445.00;;;;5114578;28;20323;-62
2022/10/01 07:01:40;;;;;;;0.70;0.70;;;;;9.00;95434.00;;;;5116193;28;20362;-61
2022/10/01 07:04:07;;;;;;;0.70;0.70;;;;;9.00;95430.00;;;;5116042;28;20313;-62
2022/10/01 07:06:34;;;;;;;0.73;0.73;;;;;9.00;95431.00;;;;5116071;28;20382;-60
2022/10/01 07:09:00;;;;;;;2.27;1.07;;;;;9.00;95433.00;;;;5101936;28;20198;-60
2022/10/01 07:11:27;;;;;;;0.60;0.60;;;;;9.10;95432.00;;;;5099204;28;20285;-59
2022/10/01 07:13:56;;;;;;;0.70;0.70;;;;;9.10;95408.00;;;;5115990;28;20265;-60
2022/10/01 07:16:25;;;;;;;0.60;0.60;;;;;9.00;95412.00;;;;5115962;28;20186;-61
2022/10/01 07:18:52;;;;;;;0.67;0.67;;;;;9.10;95400.00;;;;5116029;28;20186;-60
2022/10/01 07:21:19;;;;;;;1.00;1.00;;;;;9.10;95441.00;;;;5115866;28;20547;-60
2022/10/01 07:23:47;;;;;;;0.63;0.63;;;;;9.00;95403.00;;;;5115740;28;20241;-61
2022/10/01 07:26:13;;;;;;;0.50;0.50;;;;;9.00;95414.00;;;;5115767;28;20189;-61
2022/10/01 07:28:40;;;;;;;0.53;0.53;;;;;9.10;95402.00;;;;5115710;28;20222;-61
2022/10/01 07:31:10;;;;;;;0.63;0.63;;;;;9.10;95405.00;;;;5097804;28;20253;-60
2022/10/01 07:33:37;;;;;;;0.60;0.60;;;;;9.00;95417.00;;;;5097630;28;20240;-62
2022/10/01 07:36:09;;;;;;;0.70;0.70;;;;;9.00;95378.00;;;;5097528;28;20194;-62
2022/10/01 07:38:36;;;;;;;0.70;0.70;;;;;9.10;95430.00;;;;5115743;28;20218;-57
2022/10/01 07:41:05;;;;;;;0.67;0.67;;;;;8.90;95433.00;;;;5115490;28;20198;-57
2022/10/01 07:43:33;;;;;;;0.80;0.80;;;;;9.10;95416.00;;;;5115358;28;20715;-56
2022/10/01 07:46:00;;;;;;;0.83;0.83;;;;;9.00;95428.00;;;;5097583;28;20190;-57
2022/10/01 07:48:28;;;;;;;0.60;0.60;;;;;8.90;95432.00;;;;5115228;28;20222;-58
2022/10/01 07:50:56;;;;;;;0.67;0.67;;;;;9.10;95433.00;;;;5097538;28;20211;-62
2022/10/01 07:53:23;;;;;;;0.90;0.90;;;;;9.00;95412.00;;;;5115356;28;20226;-59
2022/10/01 07:55:50;;;;;;;0.70;0.70;;;;;8.90;95424.00;;;;5115186;28;20641;-58
2022/10/01 07:58:17;;;;;;;0.57;0.57;;;;;9.00;95434.00;;;;5115189;28;20249;-60
2022/10/01 08:00:44;;;;;;;0.50;0.50;;;;;8.90;95428.00;;;;5097216;28;20263;-60
2022/10/01 08:03:11;;;;;;;0.53;0.53;;;;;8.90;95425.00;;;;5115428;28;20222;-61
2022/10/01 08:05:42;;;;;;;0.60;0.60;;;;;8.80;95435.00;;;;5115250;28;20211;-60
2022/10/01 08:08:09;;;;;;;0.50;0.50;;;;;8.90;95438.00;;;;5114979;28;20232;-59
2022/10/01 08:10:37;;;;;;;0.63;0.63;;;;;8.80;95442.00;;;;5114414;28;20190;-59
2022/10/01 08:13:13;;;;;;;0.80;0.80;;;;;8.90;95434.00;;;;5115005;28;20222;-59
2022/10/01 08:15:40;;;;;;;0.70;0.70;;;;;8.80;95446.00;;;;5115171;28;20530;-58
2022/10/01 08:18:07;;;;;;;0.50;0.50;;;;;8.80;95459.00;;;;5114851;28;20232;-59
2022/10/01 08:20:38;;;;;;;0.53;0.53;;;;;8.80;95440.00;;;;5114934;28;20214;-58
2022/10/01 08:23:07;;;;;;;0.50;0.50;;;;;8.80;95446.00;;;;5114695;28;20226;-59
2022/10/01 08:25:36;;;;;;;0.60;0.60;;;;;8.90;95451.00;;;;5096728;28;20209;-60
2022/10/01 08:28:04;;;;;;;0.50;0.50;;;;;9.00;95454.00;;;;5114921;28;20212;-59
2022/10/01 08:30:31;;;;;;;0.50;0.50;;;;;8.90;95443.00;;;;5114782;28;20208;-58
2022/10/01 08:32:59;;;;;;;0.50;0.50;;;;;8.90;95468.00;;;;5114610;28;20190;-58
2022/10/01 08:35:27;;;;;;;0.60;0.60;;;;;9.10;95449.00;;;;5114690;28;20205;-57
2022/10/01 08:37:55;;;;;;;0.50;0.50;;;;;8.90;95454.00;;;;5114506;28;20202;-58
2022/10/01 08:40:23;;;;;;;0.60;0.60;;;;;9.00;95462.00;;;;5096725;28;20198;-58
2022/10/01 08:42:56;;;;;;;0.47;0.47;;;;;9.00;95461.00;;;;5114576;28;20190;-58
2022/10/01 08:45:26;;;;;;;0.50;0.50;;;;;8.80;95477.00;;;;5114519;28;20216;-59
2022/10/01 08:47:59;;;;;;;0.60;0.60;;;;;9.00;95460.00;;;;5114436;28;20205;-58
2022/10/01 08:50:37;;;;;;;3.83;1.57;;;;;8.90;95452.00;;;;5114403;28;20205;-58
2022/10/01 08:53:09;;;;;;;0.63;0.63;;;;;9.00;95422.00;;;;5114538;28;20194;-58
2022/10/01 08:55:39;;;;;;;0.50;0.50;;;;;9.10;95465.00;;;;5096381;28;20493;-58
2022/10/01 08:58:10;;;;;;;0.50;0.50;;;;;9.20;95468.00;;;;5096398;28;20221;-58
2022/10/01 09:00:41;;;;;;;0.60;0.60;;;;;9.40;95449.00;;;;5114350;28;20201;-58
2022/10/01 09:03:14;;;;;;;0.50;0.50;;;;;9.20;95454.00;;;;5095991;28;20194;-58
2022/10/01 09:05:50;;;;;;;0.50;0.50;;;;;9.20;95465.00;;;;5114101;28;20213;-58
2022/10/01 09:08:24;;;;;;;0.60;0.60;;;;;9.30;95466.00;;;;5114006;28;20197;-58
2022/10/01 09:10:57;;;;;;;0.50;0.50;;;;;9.40;95465.00;;;;5114134;28;20190;-57
2022/10/01 09:13:58;;;;;;;0.50;0.50;;;;;9.30;95471.00;;;;5114039;28;20210;-57
2022/10/01 09:16:34;;;;;;;0.60;0.60;;;;;9.40;95471.00;;;;5096191;28;20213;-59
2022/10/01 09:19:11;;;;;;;0.77;0.77;;;;;9.30;95472.00;;;;5113975;28;20225;-58
2022/10/01 09:21:51;;;;;;;0.60;0.60;;;;;9.50;95475.00;;;;5114012;28;20198;-58
2022/10/01 09:24:32;;;;;;;0.50;0.50;;;;;9.60;95473.00;;;;5114023;28;20365;-58
2022/10/01 09:27:07;;;;;;;0.90;0.90;;;10.20;98.70;9.60;95473.00;;;;5113862;28;20205;-58
2022/10/01 09:29:42;;;;;;;0.80;0.80;;;10.30;99.60;9.70;95465.00;;;;5095667;28;20748;-57
2022/10/01 09:32:14;;;;;;;0.50;0.50;;;;;9.80;95479.00;;;;5113876;28;20259;-58
2022/10/01 09:34:43;;;;;;;0.60;0.60;;;;;9.80;95499.00;;;;5113762;28;20304;-59
2022/10/01 09:37:23;;;;;;;0.60;0.60;;;;;9.90;95477.00;;;;5095749;28;20198;-59
2022/10/01 09:39:59;;;;;;;0.50;0.50;;;;;10.00;95480.00;;;;5113762;28;20228;-59
2022/10/01 09:42:29;;;;;;;0.60;0.60;;;;;10.00;95490.00;;;;5113778;28;20194;-60
2022/10/01 09:44:56;;;;;;;0.60;0.60;;;;;10.00;95490.00;;;;5113561;28;20225;-59
2022/10/01 09:47:24;;;;;;;0.50;0.50;;;;;9.90;95486.00;;;;5095660;28;20193;-58
2022/10/01 09:49:51;;;;;;;0.50;0.50;;;;;9.90;95471.00;;;;5113648;28;20221;-60
2022/10/01 09:52:25;;;;;;;0.60;0.60;;;;;10.00;95487.00;;;;5113561;28;20201;-59
2022/10/01 09:54:57;;;;;;;0.50;0.50;;;;;9.90;95492.00;;;;5095633;28;20240;-57
2022/10/01 09:57:31;;;;;;;0.57;0.57;;;;;10.10;95477.00;;;;5113501;28;20316;-58
2022/10/01 10:00:06;;;;;;;0.60;0.60;;;;;10.00;95498.00;;;;5113448;28;20218;-59
2022/10/01 10:02:39;;;;;;;0.40;0.40;;;;;10.20;95496.00;;;;5113754;28;20500;-59
2022/10/01 10:05:08;;;;;;;0.50;0.50;;;;;10.10;95509.00;;;;5113328;28;20236;-58
2022/10/01 10:07:41;;;;;;;0.60;0.60;;;;;10.00;95513.00;;;;5113454;28;20292;-58
2022/10/01 10:10:15;;;;;;;0.50;0.50;;;;;10.10;95524.00;;;;5113345;28;20246;-59
2022/10/01 10:12:43;;;;;;;0.50;0.50;;;;;10.00;95529.00;;;;5113264;28;20200;-58
2022/10/01 10:15:16;;;;;;;0.60;0.60;;;;;9.90;95517.00;;;;5113235;28;20214;-58
2022/10/01 10:17:50;;;;;;;0.50;0.50;;;;;10.10;95520.00;;;;5113430;28;20198;-58
2022/10/01 10:20:27;;;;;;;0.60;0.60;;;;;10.00;95525.00;;;;5113048;28;20525;-58
2022/10/01 10:23:04;;;;;;;0.50;0.50;;;;;10.00;95528.00;;;;5113386;28;20197;-58
2022/10/01 10:25:31;;;;;;;0.50;0.50;;;;;9.80;95526.00;;;;5112964;28;20304;-58
2022/10/01 10:28:01;;;;;;;0.60;0.60;;;;;10.00;95513.00;;;;5112971;28;20523;-58
2022/10/01 10:30:28;;;;;;;0.60;0.60;;;;;9.90;95532.00;;;;5095083;28;20320;-57
2022/10/01 10:33:04;;;;;;;0.60;0.60;;;;;10.00;95516.00;;;;5112940;28;20633;-60
2022/10/01 10:35:34;;;;;;;0.70;0.70;;;;;9.90;95518.00;;;;5116684;28;20221;-60
2022/10/01 10:38:01;;;;;;;0.50;0.50;;;;;10.00;95513.00;;;;5116731;28;20200;-58
2022/10/01 10:40:31;;;;;;;0.50;0.50;;;;;9.90;95528.00;;;;5116654;28;20209;-58
2022/10/01 10:42:59;;;;;;;0.60;0.60;;;;;10.00;95522.00;;;;5116845;28;20247;-58
2022/10/01 10:45:32;;;;;;;0.50;0.50;;;;;10.10;95509.00;;;;5116451;28;20228;-58
2022/10/01 10:48:02;;;;;;;0.60;0.60;;;;;9.90;95515.00;;;;5116561;28;20643;-58
2022/10/01 10:50:35;;;;;;;0.50;0.50;;;;;10.00;95509.00;;;;5116371;28;20292;-58
2022/10/01 10:53:18;;;;;;;0.60;0.60;;;;;10.00;95521.00;;;;5116419;28;20206;-57
2022/10/01 10:55:54;;;;;;;0.47;0.47;;;;;9.90;95497.00;;;;5116389;28;20303;-60
2022/10/01 10:58:25;;;;;;;0.50;0.50;;;;;9.90;95521.00;;;;5116374;28;20189;-58
2022/10/01 11:00:55;;;;;;;0.53;0.53;;;;;9.90;95503.00;;;;5098226;28;20221;-58
2022/10/01 11:03:25;;;;;;;0.60;0.60;;;;;9.90;95507.00;;;;5116208;28;20232;-59
2022/10/01 11:06:01;;;;;;;0.60;0.60;;;;;10.10;95501.00;;;;5116161;28;20234;-58
2022/10/01 11:08:29;;;;;;;0.50;0.50;;;;;10.10;95497.00;;;;5116270;28;20569;-60
2022/10/01 11:11:09;;;;;;;0.60;0.60;;;;;10.20;95506.00;;;;5116257;28;20218;-60
2022/10/01 11:14:07;;;;;;;0.53;0.53;;;;;10.20;95501.00;;;;5116398;28;20547;-61
2022/10/01 11:16:58;;;;;;;0.53;0.53;;;;;10.10;95514.00;;;;5116092;28;20543;-61
2022/10/01 11:19:41;;;;;;;0.60;0.60;;;;;10.20;95513.00;;;;5115973;28;20716;-59
2022/10/01 11:22:27;;;;;;;0.50;0.50;;;;;10.20;95494.00;;;;5098134;28;20266;-59
2022/10/01 11:25:19;;;;;;;0.50;0.50;;;;;10.20;95506.00;;;;5097794;28;20264;-58
2022/10/01 11:28:00;;;;;;;0.50;0.50;;;;;10.10;95515.00;;;;5115716;28;20198;-59
2022/10/01 11:30:36;;;;;;;0.50;0.50;;;;;10.10;95498.00;;;;5115733;28;20218;-58
2022/10/01 11:33:15;;;;;;;0.50;0.50;;;;;10.20;95499.00;;;;5115850;28;20189;-59
2022/10/01 11:35:54;;;;;;;0.70;0.70;;;;;10.30;95498.00;;;;5097833;28;20221;-59
2022/10/01 11:38:46;;;;;;;0.73;0.73;;;;;10.30;95519.00;;;;5115748;28;20202;-59
2022/10/01 11:41:22;;;;;;;0.60;0.60;;;;;10.60;95510.00;;;;5115564;28;20228;-59
2022/10/01 11:43:53;;;;;;;0.70;0.70;;;;;10.50;95503.00;;;;5097303;28;20221;-59
2022/10/01 11:46:42;;;;;;;0.80;0.80;;;;;10.50;95509.00;;;;5114150;28;20286;-59
2022/10/01 11:49:28;;;;;;;0.47;0.47;;;;;10.70;95523.00;;;;5115460;28;20190;-61
2022/10/01 11:52:04;;;;;;;0.50;0.50;;;;;10.90;95510.00;;;;5115511;28;20294;-60
2022/10/01 11:54:35;;;;;;;0.50;0.50;;;11.50;98.20;11.00;95494.00;;;;5115352;28;20208;-59
2022/10/01 12:00:04;;;;;;;0.77;0.77;;;;;11.30;95487.00;;;;5057764;28;20236;-59
2022/10/01 12:02:35;;;;;;;0.50;0.50;;;;;11.40;95513.00;;;;5115235;28;20212;-60
2022/10/01 12:05:07;;;;;;;0.50;0.50;;;;;11.40;95490.00;;;;5096907;28;20656;-58
2022/10/01 12:07:42;;;;;;;0.60;0.60;;;;;11.60;95495.00;;;;5115022;28;20190;-60
2022/10/01 12:10:20;;;;;;;0.40;0.40;;;;;11.50;95506.00;;;;5115100;28;20217;-59
2022/10/01 12:12:57;;;;;;;0.57;0.57;;;12.00;95.70;11.60;95467.00;;;;5096866;28;20217;-59
2022/10/01 12:15:29;;;;;;;0.70;0.70;;;;;11.60;95493.00;;;;5096838;28;20308;-58
2022/10/01 12:18:04;;;;;;;0.60;0.60;;;;;11.60;95506.00;;;;5115056;28;20244;-59
2022/10/01 12:20:35;;;;;;;0.50;0.50;;;;;11.70;95505.00;;;;5114861;28;20270;-59
2022/10/01 12:23:09;;;;;;;0.50;0.50;;;;;11.80;95494.00;;;;5096874;28;20535;-59
2022/10/01 12:25:43;;;;;;;0.40;0.40;;;;;12.10;95493.00;;;;5114826;28;20734;-59
2022/10/01 12:28:14;;;;;;;0.50;0.50;;;;;12.20;95503.00;;;;5096716;28;20202;-59
2022/10/01 12:30:48;;;;;;;0.50;0.50;;;;;12.30;95508.00;;;;5114552;28;20224;-59
2022/10/01 12:33:44;;;;;;;0.57;0.57;;;;;12.30;95497.00;;;;5114723;28;20181;-60
2022/10/01 12:36:21;;;;;;;0.50;0.50;;;13.00;89.10;12.70;95494.00;;;;5096640;28;20222;-59
2022/10/01 12:39:01;;;;;;;0.40;0.40;;;;;12.70;95482.00;;;;5096739;28;20197;-59
2022/10/01 12:41:44;;;;;;;0.40;0.40;;;13.10;99.90;13.30;95526.00;;;;5114615;28;20228;-58
2022/10/01 12:44:37;;;;;;;0.50;0.50;;;;;13.00;95501.00;;;;5114503;28;20300;-59
2022/10/01 12:47:27;;;;;;;0.40;0.40;;;14.10;82.40;13.70;95515.00;;;;5114503;28;20222;-58
2022/10/01 12:50:05;;;;;;;0.50;0.50;;;14.10;80.70;13.90;95523.00;;;;5114569;28;20198;-59